Time;durP1;ratioP1;P1;durP2;ratioP2;P2;SDS_P1;SDS_P2;PMS_P1;PMS_P2;Temp;Humidity;BMP_temperature;BMP_pressure;BME280_temperature;BME280_humidity;BME280_pressure;Samples;Min_cycle;Max_cycle;Signal;HPM_P1;HPM_P2
2023/12/23 00:01:55;;;;;;;;;;;;;;;13.61;52.73;99994.59;4948918;28;7140;-76
2023/12/23 00:04:20;;;;;;;;;;;;;;;13.39;53.13;100014.50;4965300;28;7149;-75
2023/12/23 00:06:46;;;;;;;;;;;;;;;13.24;52.69;100008.91;4944392;28;7373;-75
2023/12/23 00:09:15;;;;;;;;;;;;;;;13.09;52.97;99984.44;4959282;28;6920;-75
2023/12/23 00:11:41;;;;;;;;;;;;;;;12.96;53.56;100002.91;4960580;28;7042;-76
2023/12/23 00:14:06;;;;;;;;;;;;;;;12.80;53.29;100012.69;4927724;28;6960;-75
2023/12/23 00:16:31;;;;;;;;;;;;;;;12.65;53.50;99992.47;4955061;28;7055;-75
2023/12/23 00:18:57;;;;;;;;;;;;;;;12.49;54.08;100016.81;4965884;28;6942;-75
2023/12/23 00:21:22;;;;;;;;;;;;;;;12.35;54.55;100006.91;4963814;28;7142;-75
2023/12/23 00:23:48;;;;;;;;;;;;;;;12.24;54.60;100005.69;4965067;28;6796;-75
2023/12/23 00:26:13;;;;;;;;;;;;;;;12.20;54.77;99996.13;4933987;28;7107;-75
2023/12/23 00:28:39;;;;;;;;;;;;;;;12.14;55.75;99983.06;4942201;28;6967;-75
2023/12/23 00:31:04;;;;;;;;;;;;;;;12.10;56.17;99976.06;4966326;28;7007;-75
2023/12/23 00:33:30;;;;;;;;;;;;;;;12.08;56.47;99979.47;4950675;28;6968;-75
2023/12/23 00:35:55;;;;;;;;;;;;;;;12.10;56.51;99974.38;4950959;28;6855;-75
2023/12/23 00:38:21;;;;;;;;;;;;;;;12.11;56.24;99972.69;4931631;28;6984;-75
2023/12/23 00:40:46;;;;;;;;;;;;;;;12.12;56.98;99980.44;4943147;28;6948;-76
2023/12/23 00:43:12;;;;;;;;;;;;;;;12.17;57.21;99981.47;4963394;28;6947;-76
2023/12/23 00:45:38;;;;;;;;;;;;;;;12.24;56.86;99977.41;4928507;28;7019;-75
2023/12/23 00:48:03;;;;;;;;;;;;;;;12.28;57.41;99971.56;4963863;28;6788;-76
2023/12/23 00:50:29;;;;;;;;;;;;;;;12.34;57.36;99964.06;4949264;28;7168;-75
2023/12/23 00:52:54;;;;;;;;;;;;;;;12.41;58.10;99965.16;4942640;28;7358;-76
2023/12/23 00:55:20;;;;;;;;;;;;;;;12.46;58.29;99963.59;4949482;28;6783;-75
2023/12/23 00:57:45;;;;;;;;;;;;;;;12.53;57.97;99963.81;4959827;28;7172;-75
2023/12/23 01:00:11;;;;;;;;;;;;;;;12.62;58.37;99962.41;4966790;28;6775;-76
2023/12/23 01:02:37;;;;;;;;;;;;;;;12.71;58.30;99966.09;4965776;28;7218;-75
2023/12/23 01:05:02;;;;;;;;;;;;;;;12.80;58.10;99958.69;4932769;28;6942;-75
2023/12/23 01:07:28;;;;;;;;;;;;;;;12.90;58.86;99958.16;4962243;28;6972;-75
2023/12/23 01:09:53;;;;;;;;;;;;;;;12.98;58.59;99960.94;4964295;28;6784;-75
2023/12/23 01:12:19;;;;;;;;;;;;;;;13.06;58.56;99958.63;4950621;28;6944;-75
2023/12/23 01:14:44;;;;;;;;;;;;;;;13.14;58.52;99959.75;4932707;28;6968;-78
2023/12/23 01:17:10;;;;;;;;;;;;;;;13.22;58.25;99946.22;4962416;28;6967;-79
2023/12/23 01:19:35;;;;;;;;;;;;;;;13.28;57.76;99949.88;4946637;28;6981;-79
2023/12/23 01:22:01;;;;;;;;;;;;;;;13.33;57.30;99952.56;4929285;28;7594;-78
2023/12/23 01:24:27;;;;;;;;;;;;;;;13.37;57.91;99943.22;4963076;28;8142;-77
2023/12/23 01:26:52;;;;;;;;;;;;;;;13.40;57.52;99951.91;4933254;28;7262;-79
2023/12/23 01:29:18;;;;;;;;;;;;;;;13.44;57.13;99956.38;4937926;28;7058;-78
2023/12/23 01:31:43;;;;;;;;;;;;;;;13.50;57.20;99952.22;4957766;28;7474;-79
2023/12/23 01:34:09;;;;;;;;;;;;;;;13.55;57.10;99959.22;4963213;28;6995;-78
2023/12/23 01:36:34;;;;;;;;;;;;;;;13.61;57.27;99958.53;4947928;28;6864;-78
2023/12/23 01:39:00;;;;;;;;;;;;;;;13.64;56.75;99958.63;4963220;28;7278;-79
2023/12/23 01:41:25;;;;;;;;;;;;;;;13.66;57.30;99951.81;4946119;28;6788;-79
2023/12/23 01:43:51;;;;;;;;;;;;;;;13.66;57.15;99945.78;4962413;28;6825;-79
2023/12/23 01:46:18;;;;;;;;;;;;;;;13.64;57.39;99956.06;4924374;28;7141;-77
2023/12/23 01:48:44;;;;;;;;;;;;;;;13.61;56.90;99945.66;4944379;28;7925;-79
2023/12/23 01:51:12;;;;;;;;;;;;;;;13.57;56.61;99944.72;4947459;28;6800;-79
2023/12/23 01:53:37;;;;;;;;;;;;;;;13.54;57.25;99944.63;4946364;28;6876;-78
2023/12/23 01:56:03;;;;;;;;;;;;;;;13.53;57.63;99945.44;4963084;28;6857;-78
2023/12/23 01:58:28;;;;;;;;;;;;;;;13.51;57.55;99941.06;4945780;28;7384;-78
2023/12/23 02:00:54;;;;;;;;;;;;;;;13.49;57.09;99953.03;4935104;28;6784;-77
2023/12/23 02:03:20;;;;;;;;;;;;;;;13.46;57.25;99964.09;4941068;28;7346;-76
2023/12/23 02:05:46;;;;;;;;;;;;;;;13.44;57.85;99966.66;4940842;28;7200;-79
2023/12/23 02:08:12;;;;;;;;;;;;;;;13.44;58.07;99942.56;4929212;28;7006;-78
2023/12/23 02:10:38;;;;;;;;;;;;;;;13.42;57.87;99939.97;4943038;28;6830;-79
2023/12/23 02:13:24;;;;;;;;;;;;;;;13.42;58.09;99949.38;4944273;28;6824;-79
2023/12/23 02:15:51;;;;;;;;;;;;;;;13.40;58.16;99951.91;4941933;28;7893;-79
2023/12/23 02:18:19;;;;;;;;;;;;;;;13.39;57.81;99963.03;4946347;28;6984;-79
2023/12/23 02:20:51;;;;;;;;;;;;;;;13.40;58.63;99954.47;4939161;28;7178;-80
2023/12/23 02:23:17;;;;;;;;;;;;;;;13.41;57.70;99960.50;4943612;28;6975;-79
2023/12/23 02:25:45;;;;;;;;;;;;;;;13.42;57.97;99942.56;4947777;28;6796;-75
2023/12/23 02:28:12;;;;;;;;;;;;;;;13.40;57.63;99933.88;4930885;28;7170;-75
2023/12/23 02:30:40;;;;;;;;;;;;;;;13.39;57.66;99937.28;4943792;28;7002;-75
2023/12/23 02:33:06;;;;;;;;;;;;;;;13.40;58.02;99941.59;4946059;28;6989;-76
2023/12/23 02:35:32;;;;;;;;;;;;;;;13.40;58.58;99939.03;4940356;28;6847;-75
2023/12/23 02:37:57;;;;;;;;;;;;;;;13.40;58.54;99926.16;4962855;28;7175;-75
2023/12/23 02:40:23;;;;;;;;;;;;;;;13.41;57.82;99919.31;4940047;28;6800;-75
2023/12/23 02:42:48;;;;;;;;;;;;;;;13.40;57.82;99920.16;4942463;28;6768;-75
2023/12/23 02:45:14;;;;;;;;;;;;;;;13.39;58.36;99915.84;4939154;28;6964;-76
2023/12/23 02:47:39;;;;;;;;;;;;;;;13.39;58.10;99915.84;4954186;28;6969;-75
2023/12/23 02:50:05;;;;;;;;;;;;;;;13.37;58.41;99914.91;4945982;28;6796;-76
2023/12/23 02:52:30;;;;;;;;;;;;;;;13.36;58.92;99920.88;4946476;28;6871;-75
2023/12/23 02:54:56;;;;;;;;;;;;;;;13.32;58.21;99909.63;4919036;29;6962;-75
2023/12/23 02:57:21;;;;;;;;;;;;;;;13.30;58.83;99904.44;4925585;28;7029;-76
2023/12/23 02:59:47;;;;;;;;;;;;;;;13.28;58.51;99918.09;4962554;28;7263;-75
2023/12/23 03:02:12;;;;;;;;;;;;;;;13.21;58.77;99924.78;4959493;28;7321;-75
2023/12/23 03:04:38;;;;;;;;;;;;;;;13.15;58.65;99911.72;4928660;28;8383;-75
2023/12/23 03:07:04;;;;;;;;;;;;;;;13.08;58.77;99897.81;4945836;28;6983;-75
2023/12/23 03:09:29;;;;;;;;;;;;;;;13.04;58.77;99908.84;4963039;28;6980;-75
2023/12/23 03:11:54;;;;;;;;;;;;;;;13.01;59.49;99913.88;4948296;28;6997;-75
2023/12/23 03:14:20;;;;;;;;;;;;;;;12.99;59.49;99910.38;4950062;28;6939;-75
2023/12/23 03:16:46;;;;;;;;;;;;;;;12.97;59.27;99897.47;4962115;28;6892;-76
2023/12/23 03:19:11;;;;;;;;;;;;;;;12.97;59.21;99905.19;4946503;28;6884;-76
2023/12/23 03:21:44;;;;;;;;;;;;;;;12.97;59.46;99891.47;4943766;28;6950;-76
2023/12/23 03:24:10;;;;;;;;;;;;;;;12.98;59.57;99890.63;4948893;28;6980;-75
2023/12/23 03:26:35;;;;;;;;;;;;;;;13.00;59.96;99905.28;4928583;28;7086;-75
2023/12/23 03:29:01;;;;;;;;;;;;;;;13.02;59.38;99897.59;4940899;28;7171;-75
2023/12/23 03:31:26;;;;;;;;;;;;;;;13.02;59.88;99888.19;4963243;28;6816;-75
2023/12/23 03:33:52;;;;;;;;;;;;;;;13.03;59.48;99878.75;4963212;28;7248;-75
2023/12/23 03:36:18;;;;;;;;;;;;;;;13.04;59.25;99872.81;4949497;28;6952;-76
2023/12/23 03:38:43;;;;;;;;;;;;;;;13.05;58.99;99880.56;4982482;28;6784;-76
2023/12/23 03:41:12;;;;;;;;;;;;;;;13.06;59.26;99886.59;4946493;29;6966;-77
2023/12/23 03:43:37;;;;;;;;;;;;;;;13.07;59.18;99878.06;4983930;28;6990;-77
2023/12/23 03:46:03;;;;;;;;;;;;;;;13.10;59.47;99885.84;4979367;28;6849;-77
2023/12/23 03:48:28;;;;;;;;;;;;;;;13.13;59.43;99891.06;4966516;28;7725;-77
2023/12/23 03:50:54;;;;;;;;;;;;;;;13.14;59.23;99869.69;4982193;28;6853;-76
2023/12/23 03:53:19;;;;;;;;;;;;;;;13.18;58.82;99891.22;4967376;28;6960;-77
2023/12/23 03:55:44;;;;;;;;;;;;;;;13.20;59.93;99854.41;4976178;28;6848;-78
2023/12/23 03:58:10;;;;;;;;;;;;;;;13.25;59.54;99887.13;4968860;28;6791;-77
2023/12/23 04:00:35;;;;;;;;;;;;;;;13.26;59.30;99874.28;4983535;28;6890;-76
2023/12/23 04:03:01;;;;;;;;;;;;;;;13.28;58.46;99872.66;4978016;28;6949;-77
2023/12/23 04:05:26;;;;;;;;;;;;;;;13.32;58.47;99864.19;4976653;28;7376;-77
2023/12/23 04:07:52;;;;;;;;;;;;;;;13.36;58.92;99856.53;4963560;28;6776;-77
2023/12/23 04:10:18;;;;;;;;;;;;;;;13.38;58.44;99858.34;4965333;28;6776;-77
2023/12/23 04:12:43;;;;;;;;;;;;;;;13.40;58.70;99841.22;4950484;28;7020;-77
2023/12/23 04:15:09;;;;;;;;;;;;;;;13.43;58.01;99837.88;4985927;28;6961;-77
2023/12/23 04:17:35;;;;;;;;;;;;;;;13.43;57.88;99850.75;4964842;28;7120;-77
2023/12/23 04:20:01;;;;;;;;;;;;;;;13.46;58.21;99841.44;4962034;28;7104;-76
2023/12/23 04:22:26;;;;;;;;;;;;;;;13.49;58.14;99850.94;4982542;28;6792;-76
2023/12/23 04:24:52;;;;;;;;;;;;;;;13.52;58.43;99839.84;4963660;28;6803;-76
2023/12/23 04:27:17;;;;;;;;;;;;;;;13.54;57.80;99831.34;4965232;28;6780;-78
2023/12/23 04:29:43;;;;;;;;;;;;;;;13.57;57.30;99848.56;4978003;28;6931;-76
2023/12/23 04:32:08;;;;;;;;;;;;;;;13.58;57.41;99855.47;4973531;28;6784;-77
2023/12/23 04:34:34;;;;;;;;;;;;;;;13.60;57.78;99848.66;4961347;28;6868;-77
2023/12/23 04:36:59;;;;;;;;;;;;;;;13.61;57.14;99848.69;4970301;28;6967;-77
2023/12/23 04:39:25;;;;;;;;;;;;;;;13.63;56.97;99856.47;4961846;28;6973;-77
2023/12/23 04:41:53;;;;;;;;;;;;;;;13.64;57.56;99836.72;4963027;28;7352;-77
2023/12/23 04:44:18;;;;;;;;;;;;;;;13.64;57.03;99839.31;4977554;28;7208;-76
2023/12/23 04:46:46;;;;;;;;;;;;;;;13.62;57.06;99821.25;4965036;28;7052;-76
2023/12/23 04:49:12;;;;;;;;;;;;;;;13.62;56.89;99826.41;4946631;28;6808;-76
2023/12/23 04:51:37;;;;;;;;;;;;;;;13.61;57.56;99814.34;4924911;28;6972;-76
2023/12/23 04:54:03;;;;;;;;;;;;;;;13.63;57.25;99812.69;4941242;28;6796;-76
2023/12/23 04:56:28;;;;;;;;;;;;;;;13.62;57.06;99808.38;4929149;28;7221;-76
2023/12/23 04:58:56;;;;;;;;;;;;;;;13.61;57.48;99815.22;4948385;28;7223;-76
2023/12/23 05:01:23;;;;;;;;;;;;;;;13.62;57.27;99792.94;4943460;28;7295;-76
2023/12/23 05:03:48;;;;;;;;;;;;;;;13.59;57.12;99786.00;4944257;28;7298;-77
2023/12/23 05:06:14;;;;;;;;;;;;;;;13.56;56.73;99798.78;4947672;28;6854;-76
2023/12/23 05:08:39;;;;;;;;;;;;;;;13.55;56.58;99798.75;4956368;28;6944;-76
2023/12/23 05:11:05;;;;;;;;;;;;;;;13.52;56.44;99790.91;4955948;28;6891;-76
2023/12/23 05:13:30;;;;;;;;;;;;;;;13.50;57.18;99782.28;4940727;28;7934;-76
2023/12/23 05:15:56;;;;;;;;;;;;;;;13.49;57.45;99784.00;4942767;28;6803;-76
2023/12/23 05:18:21;;;;;;;;;;;;;;;13.46;56.92;99779.66;4941266;28;7239;-76
2023/12/23 05:20:47;;;;;;;;;;;;;;;13.46;57.49;99789.06;4962383;28;7123;-77
2023/12/23 05:23:12;;;;;;;;;;;;;;;13.44;56.96;99796.75;4937721;28;7747;-76
2023/12/23 05:25:38;;;;;;;;;;;;;;;13.42;56.69;99762.38;4944664;28;6792;-76
2023/12/23 05:28:03;;;;;;;;;;;;;;;13.43;57.06;99776.97;4930964;28;8523;-76
2023/12/23 05:30:29;;;;;;;;;;;;;;;13.42;57.03;99780.38;4961653;28;7418;-76
2023/12/23 05:32:55;;;;;;;;;;;;;;;13.42;57.61;99785.53;4931584;28;7183;-76
2023/12/23 05:35:20;;;;;;;;;;;;;;;13.41;56.99;99795.78;4956074;28;6969;-76
2023/12/23 05:37:46;;;;;;;;;;;;;;;13.39;56.89;99776.84;4958808;28;6953;-76
2023/12/23 05:40:11;;;;;;;;;;;;;;;13.37;57.40;99778.50;4961083;28;7293;-76
2023/12/23 05:42:37;;;;;;;;;;;;;;;13.34;57.79;99785.31;4946568;28;6963;-76
2023/12/23 05:45:02;;;;;;;;;;;;;;;13.34;57.32;99785.31;4963373;28;6872;-76
2023/12/23 05:47:29;;;;;;;;;;;;;;;13.33;57.57;99768.13;4945087;28;7122;-76
2023/12/23 05:49:55;;;;;;;;;;;;;;;13.33;57.71;99772.41;4942545;28;7041;-76
2023/12/23 05:52:20;;;;;;;;;;;;;;;13.32;57.13;99770.66;4960330;28;8303;-76
2023/12/23 05:54:45;;;;;;;;;;;;;;;13.29;57.20;99781.75;4942624;28;7298;-76
2023/12/23 05:57:11;;;;;;;;;;;;;;;13.29;58.05;99786.91;4970065;28;6971;-76
2023/12/23 05:59:36;;;;;;;;;;;;;;;13.26;58.12;99785.94;4960681;28;6761;-77
2023/12/23 06:02:02;;;;;;;;;;;;;;;13.22;57.54;99773.81;4970683;28;6784;-77
2023/12/23 06:04:28;;;;;;;;;;;;;;;13.18;58.22;99780.56;4939541;28;7119;-76
2023/12/23 06:06:53;;;;;;;;;;;;;;;13.11;57.83;99787.25;4946458;28;6780;-77
2023/12/23 06:09:19;;;;;;;;;;;;;;;13.05;57.91;99787.09;4947215;28;6856;-77
2023/12/23 06:11:44;;;;;;;;;;;;;;;13.01;58.32;99806.72;4924615;28;7021;-77
2023/12/23 06:14:11;;;;;;;;;;;;;;;12.97;58.91;99789.44;4954017;28;7175;-78
2023/12/23 06:16:40;;;;;;;;;;;;;;;12.95;58.55;99795.38;4942383;28;6796;-77
2023/12/23 06:19:06;;;;;;;;;;;;;;;12.94;58.80;99799.66;4940831;28;6879;-80
2023/12/23 06:21:32;;;;;;;;;;;;;;;12.93;59.15;99805.63;4947611;28;6811;-80
2023/12/23 06:23:58;;;;;;;;;;;;;;;12.97;58.42;99810.00;4944401;28;8432;-78
2023/12/23 06:26:24;;;;;;;;;;;;;;;12.97;58.92;99807.44;4996744;23;6975;-81
2023/12/23 06:28:49;;;;;;;;;;;;;;;13.00;58.97;99817.84;4945062;28;6837;-81
2023/12/23 06:31:15;;;;;;;;;;;;;;;13.03;58.60;99807.63;4934156;28;8596;-81
2023/12/23 06:33:40;;;;;;;;;;;;;;;13.06;59.40;99809.41;4931395;28;6996;-80
2023/12/23 06:36:08;;;;;;;;;;;;;;;13.08;59.08;99806.88;4948288;28;6921;-85
2023/12/23 06:38:34;;;;;;;;;;;;;;;13.10;59.06;99785.50;4930711;28;7257;-89
2023/12/23 06:41:01;;;;;;;;;;;;;;;13.14;59.48;99797.66;5003405;23;7417;-86
2023/12/23 06:43:27;;;;;;;;;;;;;;;13.14;59.19;99795.06;4965497;28;7249;-86
2023/12/23 06:45:52;;;;;;;;;;;;;;;13.18;59.91;99799.47;4977390;28;6971;-88
2023/12/23 06:48:19;;;;;;;;;;;;;;;13.22;59.46;99784.09;4979869;23;8400;-87
2023/12/23 06:50:44;;;;;;;;;;;;;;;13.21;58.72;99788.38;4967671;28;6820;-86
2023/12/23 06:53:12;;;;;;;;;;;;;;;13.22;58.90;99789.25;4953770;28;6828;-86
2023/12/23 06:55:38;;;;;;;;;;;;;;;13.24;59.73;99803.06;4983706;28;7021;-86
2023/12/23 06:58:04;;;;;;;;;;;;;;;13.25;58.80;99807.38;4965979;28;7133;-87
2023/12/23 07:00:30;;;;;;;;;;;;;;;13.27;59.20;99797.97;4967503;28;7021;-87
2023/12/23 07:02:55;;;;;;;;;;;;;;;13.30;59.44;99800.63;4970363;28;7343;-86
2023/12/23 07:05:21;;;;;;;;;;;;;;;13.28;59.14;99787.72;4968641;28;6788;-85
2023/12/23 07:07:47;;;;;;;;;;;;;;;13.32;59.29;99811.81;4968537;28;6921;-86
2023/12/23 07:10:14;;;;;;;;;;;;;;;13.31;58.97;99799.78;4970095;28;6795;-86
2023/12/23 07:12:40;;;;;;;;;;;;;;;13.27;59.01;99795.41;4951117;28;6992;-85
2023/12/23 07:15:06;;;;;;;;;;;;;;;13.20;58.76;99795.22;4970096;28;7110;-86
2023/12/23 07:17:35;;;;;;;;;;;;;;;13.16;59.05;99795.97;4964041;28;7175;-86
2023/12/23 07:20:02;;;;;;;;;;;;;;;13.12;59.41;99807.00;4954198;28;7000;-86
2023/12/23 07:22:28;;;;;;;;;;;;;;;13.08;60.07;99812.00;4969144;28;7048;-85
2023/12/23 07:24:57;;;;;;;;;;;;;;;13.04;59.77;99805.94;4956004;28;7145;-86
2023/12/23 07:27:23;;;;;;;;;;;;;;;13.03;60.09;99817.03;4972426;28;7008;-86
2023/12/23 07:29:48;;;;;;;;;;;;;;;12.99;59.27;99822.94;4952492;28;7007;-86
2023/12/23 07:32:14;;;;;;;;;;;;;;;12.97;60.24;99809.16;4971605;28;7126;-86
2023/12/23 07:34:39;;;;;;;;;;;;;;;12.95;59.62;99818.53;4971841;28;7325;-86
2023/12/23 07:37:05;;;;;;;;;;;;;;;12.90;60.32;99811.53;4989260;28;6796;-85
2023/12/23 07:39:30;;;;;;;;;;;;;;;12.89;60.03;99809.78;4972447;28;6978;-86
2023/12/23 07:41:57;;;;;;;;;;;;;;;12.89;59.94;99807.22;4972584;28;7052;-85
2023/12/23 07:44:24;;;;;;;;;;;;;;;12.86;60.54;99809.72;4984680;28;6963;-85
2023/12/23 07:46:49;;;;;;;;;;;;;;;12.84;61.05;99810.50;4954287;28;6980;-85
2023/12/23 07:49:15;;;;;;;;;;;;;;;12.82;60.51;99814.72;4964900;28;8399;-85
2023/12/23 07:51:41;;;;;;;;;;;;;;;12.86;61.26;99825.16;4956942;28;6958;-84
2023/12/23 07:54:07;;;;;;;;;;;;;;;12.84;60.70;99813.91;4959836;28;8420;-85
2023/12/23 07:56:33;;;;;;;;;;;;;;;12.84;61.18;99828.50;4961179;28;8475;-84
2023/12/23 07:59:00;;;;;;;;;;;;;;;12.89;60.89;99838.09;4962818;28;8768;-85
2023/12/23 08:01:28;;;;;;;;;;;;;;;12.91;61.27;99827.84;4960723;28;7183;-85
2023/12/23 08:03:55;;;;;;;;;;;;;;;12.95;61.15;99833.97;4940311;28;7051;-85
2023/12/23 08:06:22;;;;;;;;;;;;;;;12.97;61.34;99828.00;4944580;28;7235;-85
2023/12/23 08:08:48;;;;;;;;;;;;;;;13.02;60.82;99828.16;4957780;28;6968;-85
2023/12/23 08:11:14;;;;;;;;;;;;;;;13.06;60.68;99822.28;4974968;28;6816;-85
2023/12/23 08:13:40;;;;;;;;;;;;;;;13.12;60.57;99827.59;4976884;28;6784;-85
2023/12/23 08:16:07;;;;;;;;;;;;;;;13.18;61.07;99829.44;4942077;28;8456;-85
2023/12/23 08:18:32;;;;;;;;;;;;;;;13.24;60.39;99823.63;4963503;28;7156;-84
2023/12/23 08:20:58;;;;;;;;;;;;;;;13.29;60.00;99822.03;4959120;28;6804;-84
2023/12/23 08:23:24;;;;;;;;;;;;;;;13.33;60.44;99829.03;4962091;28;6941;-86
2023/12/23 08:25:50;;;;;;;;;;;;;;;13.40;60.13;99823.19;4960792;28;7203;-86
2023/12/23 08:28:15;;;;;;;;;;;;;;;13.45;60.47;99821.69;4944908;28;6964;-85
2023/12/23 08:31:01;;;;;;;;;;;;;;;13.47;59.69;99832.00;4958775;28;6962;-89
2023/12/23 08:33:27;;;;;;;;;;;;;;;13.54;60.18;99823.59;4946433;28;7168;-85
2023/12/23 08:35:56;;;;;;;;;;;;;;;13.58;59.13;99816.84;4959745;28;6899;-87
2023/12/23 08:38:22;;;;;;;;;;;;;;;13.61;59.14;99815.22;4981759;23;6992;-86
2023/12/23 08:40:48;;;;;;;;;;;;;;;13.64;59.58;99818.69;4964232;28;7009;-85
2023/12/23 08:43:15;;;;;;;;;;;;;;;13.68;59.00;99830.84;4953563;28;6971;-86
2023/12/23 08:45:40;;;;;;;;;;;;;;;13.69;58.70;99818.00;4956909;28;8642;-87
2023/12/23 08:48:06;;;;;;;;;;;;;;;13.72;59.54;99812.94;4962719;28;6958;-86
2023/12/23 08:50:31;;;;;;;;;;;;;;;13.78;59.14;99819.94;4978122;28;6787;-86
2023/12/23 08:52:57;;;;;;;;;;;;;;;13.81;58.86;99811.41;4973601;28;6795;-86
2023/12/23 08:55:25;;;;;;;;;;;;;;;13.83;59.22;99814.91;4980713;28;7101;-86
2023/12/23 08:57:51;;;;;;;;;;;;;;;13.86;58.68;99809.84;4955143;28;6938;-88
2023/12/23 09:00:16;;;;;;;;;;;;;;;13.89;58.59;99815.94;4976453;28;7164;-87
2023/12/23 09:02:42;;;;;;;;;;;;;;;13.93;58.27;99824.63;4957941;28;6967;-88
2023/12/23 09:05:08;;;;;;;;;;;;;;;13.98;58.75;99804.97;4983513;28;6959;-86
2023/12/23 09:07:39;;;;;;;;;;;;;;;14.01;57.95;99823.09;4973824;28;6934;-87
2023/12/23 09:10:06;;;;;;;;;;;;;;;14.03;58.25;99821.44;4958959;28;6905;-88
2023/12/23 09:12:33;;;;;;;;;;;;;;;14.07;57.84;99827.53;4962565;28;7065;-88
2023/12/23 09:14:59;;;;;;;;;;;;;;;14.12;57.96;99825.94;4967330;28;6980;-87
2023/12/23 09:17:24;;;;;;;;;;;;;;;14.16;57.92;99820.03;4967672;28;6968;-86
2023/12/23 09:19:51;;;;;;;;;;;;;;;14.19;57.90;99828.66;4976057;28;6979;-87
2023/12/23 09:22:22;;;;;;;;;;;;;;;14.20;57.13;99841.59;4959418;28;7070;-86
2023/12/23 09:24:47;;;;;;;;;;;;;;;14.20;57.59;99845.88;4967825;28;7000;-86
2023/12/23 09:27:13;;;;;;;;;;;;;;;14.20;57.22;99853.59;4962597;28;6941;-87
2023/12/23 09:29:45;;;;;;;;;;;;;;;14.20;57.60;99853.59;4960759;28;6930;-87
2023/12/23 09:32:10;;;;;;;;;;;;;;;14.19;56.84;99855.28;4967034;28;6858;-87
2023/12/23 09:34:36;;;;;;;;;;;;;;;14.21;57.56;99866.53;4965917;28;7025;-87
2023/12/23 09:37:02;;;;;;;;;;;;;;;14.23;57.55;99858.81;4960353;28;7107;-87
2023/12/23 09:39:28;;;;;;;;;;;;;;;14.28;56.94;99865.81;4983984;28;7028;-87
2023/12/23 09:41:56;;;;;;;;;;;;;;;14.32;57.40;99860.75;4992091;28;6977;-87
2023/12/23 09:44:23;;;;;;;;;;;;;;;14.28;57.03;99852.94;4949044;28;6966;-85
2023/12/23 09:46:51;;;;;;;;;;;;;;;14.27;57.27;99861.50;4980917;28;7031;-85
2023/12/23 09:49:17;;;;;;;;;;;;;;;14.24;57.41;99853.72;4995653;28;7044;-85
2023/12/23 09:51:44;;;;;;;;;;;;;;;14.23;57.22;99871.69;4976811;28;7136;-85
2023/12/23 09:54:15;;;;;;;;;;;;;;;14.15;57.53;99854.38;4984381;28;7244;-89
2023/12/23 09:56:42;;;;;;;;;;;;;;;14.19;57.09;99878.47;4989216;28;8071;-84
2023/12/23 09:59:08;;;;;;;;;;;;;;;14.16;57.50;99878.41;4992008;28;6774;-84
2023/12/23 10:01:34;;;;;;;;;;;;;;;14.15;57.64;99877.56;4978375;28;7146;-83
2023/12/23 10:03:59;;;;;;;;;;;;;;;14.15;57.37;99885.28;4998005;28;6927;-86
2023/12/23 10:06:25;;;;;;;;;;;;;;;14.11;56.74;99873.16;4976188;28;6758;-86
2023/12/23 10:08:51;;;;;;;;;;;;;;;14.02;57.26;99891.84;4969091;28;6954;-83
2023/12/23 10:11:17;;;;;;;;;;;;;;;13.93;57.61;99895.84;4989684;28;6938;-83
2023/12/23 10:13:43;;;;;;;;;;;;;;;13.81;57.96;99888.66;4973104;28;7115;-83
2023/12/23 10:16:08;;;;;;;;;;;;;;;13.74;58.20;99888.53;4979048;28;6953;-83
2023/12/23 10:18:34;;;;;;;;;;;;;;;13.68;58.61;99878.06;4978799;28;9098;-85
2023/12/23 10:21:00;;;;;;;;;;;;;;;13.63;58.32;99874.50;4967771;28;7009;-85
2023/12/23 10:23:28;;;;;;;;;;;;;;;13.60;58.73;99897.56;4971787;28;7114;-86
2023/12/23 10:25:54;;;;;;;;;;;;;;;13.55;58.77;99902.59;4977608;28;6813;-85
2023/12/23 10:28:24;;;;;;;;;;;;;;;13.49;58.63;99896.41;4964530;28;6987;-86
2023/12/23 10:30:49;;;;;;;;;;;;;;;13.45;58.58;99896.31;4976378;28;6984;-83
2023/12/23 10:33:17;;;;;;;;;;;;;;;13.41;58.87;99885.88;4973854;28;7041;-83
2023/12/23 10:35:48;;;;;;;;;;;;;;;13.40;59.66;99890.13;4974708;28;6989;-83
2023/12/23 10:38:17;;;;;;;;;;;;;;;13.41;59.26;99899.59;4963938;28;7151;-83
2023/12/23 10:40:51;;;;;;;;;;;;;;;13.41;59.29;99894.44;4959466;28;8438;-84
2023/12/23 10:43:27;;;;;;;;;;;;;;;13.42;59.47;99890.19;4976160;28;8556;-83
2023/12/23 10:45:54;;;;;;;;;;;;;;;13.46;59.72;99876.59;4978242;28;7193;-83
2023/12/23 10:48:21;;;;;;;;;;;;;;;13.55;59.20;99891.44;4960818;28;7043;-84
2023/12/23 10:50:47;;;;;;;;;;;;;;;13.60;59.29;99877.84;4978410;28;6981;-84
2023/12/23 10:53:17;;;;;;;;;;;;;;;13.69;59.27;99878.94;4996497;23;6942;-84
2023/12/23 10:55:43;;;;;;;;;;;;;;;13.75;59.43;99879.09;4947128;28;6995;-84
2023/12/23 10:58:12;;;;;;;;;;;;;;;13.85;59.36;99887.94;4952256;28;6796;-84
2023/12/23 11:00:38;;;;;;;;;;;;;;;13.94;59.41;99883.03;4935828;28;7004;-85
2023/12/23 11:03:07;;;;;;;;;;;;;;;14.01;58.85;99874.63;4950765;28;7001;-83
2023/12/23 11:05:40;;;;;;;;;;;;;;;14.08;58.42;99880.81;4948822;28;7005;-84
2023/12/23 11:08:12;;;;;;;;;;;;;;;14.19;57.93;99893.94;4953445;28;7298;-85
2023/12/23 11:10:52;;;;;;;;;;;;;;;14.24;58.58;99889.78;4972086;28;6980;-91
2023/12/23 11:13:19;;;;;;;;;;;;;;;14.25;58.01;99888.94;4937284;29;6778;-85
2023/12/23 11:15:46;;;;;;;;;;;;;;;14.34;57.49;99877.13;4960133;28;6968;-83
2023/12/23 11:18:12;;;;;;;;;;;;;;;14.37;57.44;99870.34;4949015;28;7032;-85
2023/12/23 11:20:40;;;;;;;;;;;;;;;14.42;57.67;99875.63;4950355;28;6785;-85
2023/12/23 11:26:42;;;;;;;;;;;;;;;14.50;56.84;99870.63;4954522;28;6796;-84
2023/12/23 11:29:12;;;;;;;;;;;;;;;14.53;56.77;99865.53;4954207;28;7070;-84
2023/12/23 11:31:38;;;;;;;;;;;;;;;14.61;57.49;99855.41;4954404;28;6977;-85
2023/12/23 11:34:19;;;;;;;;;;;;;;;14.64;56.77;99851.19;4933549;29;6739;-84
2023/12/23 11:36:46;;;;;;;;;;;;;;;14.69;57.03;99859.91;4944374;28;7014;-84
2023/12/23 11:39:13;;;;;;;;;;;;;;;14.74;55.78;99854.88;4965378;28;6968;-85
2023/12/23 11:41:46;;;;;;;;;;;;;;;14.80;55.69;99865.34;4936432;28;7014;-85
2023/12/23 11:44:12;;;;;;;;;;;;;;;14.84;56.36;99859.41;4943773;28;7179;-85
2023/12/23 11:46:46;;;;;;;;;;;;;;;14.92;56.11;99871.59;4951460;28;6826;-85
2023/12/23 11:49:11;;;;;;;;;;;;;;;14.93;55.39;99856.16;4963333;28;7009;-85
2023/12/23 11:51:39;;;;;;;;;;;;;;;15.01;55.38;99848.56;4935015;29;7022;-85
2023/12/23 11:54:04;;;;;;;;;;;;;;;15.03;55.09;99839.16;4939502;28;6961;-84
2023/12/23 11:56:30;;;;;;;;;;;;;;;15.10;54.96;99837.56;4939784;28;6940;-84
2023/12/23 11:59:01;;;;;;;;;;;;;;;15.14;54.91;99844.53;4923751;29;6923;-85
2023/12/23 12:01:27;;;;;;;;;;;;;;;15.16;54.56;99840.28;4926321;29;7460;-85
2023/12/23 12:03:52;;;;;;;;;;;;;;;15.20;54.37;99848.97;4945603;28;7162;-85
2023/12/23 12:06:27;;;;;;;;;;;;;;;15.21;54.36;99837.78;4941294;28;7177;-84
2023/12/23 12:08:55;;;;;;;;;;;;;;;15.24;54.42;99853.31;4927083;29;6794;-85
2023/12/23 12:11:26;;;;;;;;;;;;;;;15.28;53.75;99860.31;4939499;28;6952;-86
2023/12/23 12:13:58;;;;;;;;;;;;;;;15.29;53.86;99862.06;4950680;28;6934;-85
2023/12/23 12:16:24;;;;;;;;;;;;;;;15.32;53.58;99867.25;4932364;28;6967;-84
2023/12/23 12:18:49;;;;;;;;;;;;;;;15.34;53.44;99850.09;4948824;28;6955;-84
2023/12/23 12:21:15;;;;;;;;;;;;;;;15.34;53.28;99854.41;4950521;28;6862;-83
2023/12/23 12:23:40;;;;;;;;;;;;;;;15.36;53.13;99853.59;4945067;28;6919;-83
2023/12/23 12:26:08;;;;;;;;;;;;;;;15.37;53.57;99859.59;4949815;28;6919;-83
2023/12/23 12:28:36;;;;;;;;;;;;;;;15.35;53.31;99840.66;4947498;28;6975;-84
2023/12/23 12:31:13;;;;;;;;;;;;;;;15.36;53.09;99866.50;4941190;28;11697;-83
2023/12/23 12:33:42;;;;;;;;;;;;;;;15.34;52.71;99865.56;4932768;28;7006;-83
2023/12/23 12:36:12;;;;;;;;;;;;;;;15.33;52.96;99850.94;4948297;28;6975;-84
2023/12/23 12:38:38;;;;;;;;;;;;;;;15.32;52.82;99849.19;4953072;28;7069;-83
2023/12/23 12:41:03;;;;;;;;;;;;;;;15.36;52.69;99865.63;4931846;28;6957;-83
2023/12/23 12:43:31;;;;;;;;;;;;;;;15.36;52.38;99863.91;4931224;29;7037;-83
2023/12/23 12:45:57;;;;;;;;;;;;;;;15.36;52.66;99860.47;4931069;28;6979;-82
2023/12/23 12:48:27;;;;;;;;;;;;;;;15.35;52.61;99850.97;4944181;28;6961;-83
2023/12/23 12:50:55;;;;;;;;;;;;;;;15.37;52.24;99847.59;4931213;29;7230;-83
2023/12/23 12:53:32;;;;;;;;;;;;;;;15.36;52.65;99839.78;4950477;28;7425;-83
2023/12/23 12:56:12;;;;;;;;;;;;;;;15.39;52.29;99851.06;4930130;28;6983;-81
2023/12/23 12:58:38;;;;;;;;;;;;;;;15.40;51.97;99860.53;4921952;28;7170;-83